createdAt,value
2023-05-02T00:01:58.920Z,98648.86
2023-05-02T00:04:25.951Z,98642.98
2023-05-02T00:06:53.886Z,98642.04
2023-05-02T00:09:21.568Z,98644.67
2023-05-02T00:11:48.529Z,98640.88
2023-05-02T00:14:15.436Z,98637.02
2023-05-02T00:16:42.481Z,98641.73
2023-05-02T00:19:09.468Z,98641.15
2023-05-02T00:21:36.394Z,98641.94
2023-05-02T00:24:03.303Z,98644.46
2023-05-02T00:26:31.262Z,98641.89
2023-05-02T00:28:58.746Z,98640.02
2023-05-02T00:31:25.939Z,98639.77
2023-05-02T00:33:53.400Z,98644.35
2023-05-02T00:36:20.277Z,98645.95
2023-05-02T00:38:47.219Z,98638.05
2023-05-02T00:41:14.338Z,98632.45
2023-05-02T00:43:41.407Z,98636.58
2023-05-02T00:46:08.832Z,98636.27
2023-05-02T00:48:36.485Z,98636.13
2023-05-02T00:51:05.595Z,98638.91
2023-05-02T00:53:32.518Z,98638.31
2023-05-02T00:55:59.966Z,98636.72
2023-05-02T00:58:26.897Z,98640.16
2023-05-02T01:01:04.400Z,98640.15
2023-05-02T01:03:49.919Z,98637.40
2023-05-02T01:06:38.056Z,98635.27
2023-05-02T01:09:17.726Z,98638.49
2023-05-02T01:12:05.799Z,98637.51
2023-05-02T01:14:43.267Z,98636.98
2023-05-02T01:17:12.377Z,98636.66
2023-05-02T01:19:45.041Z,98634.77
2023-05-02T01:22:12.103Z,98633.10
2023-05-02T01:25:06.899Z,98635.06
2023-05-02T01:28:09.448Z,98628.12
2023-05-02T01:30:36.975Z,98630.76
2023-05-02T01:33:04.009Z,98631.46
2023-05-02T01:35:32.200Z,98629.55
2023-05-02T01:37:59.194Z,98626.70
2023-05-02T01:40:26.650Z,98624.05
2023-05-02T01:42:53.956Z,98623.92
2023-05-02T01:45:21.792Z,98624.01
2023-05-02T01:47:48.991Z,98621.65
2023-05-02T01:50:19.218Z,98617.81
2023-05-02T01:52:46.049Z,98617.13
2023-05-02T01:55:14.786Z,98617.64
2023-05-02T01:57:43.378Z,98623.51
2023-05-02T02:00:11.265Z,98626.67
2023-05-02T02:02:41.704Z,98626.35
2023-05-02T02:05:09.014Z,98628.29
2023-05-02T02:07:37.184Z,98628.81
2023-05-02T02:10:04.304Z,98630.47
2023-05-02T02:12:32.314Z,98631.29
2023-05-02T02:15:28.629Z,98632.24
2023-05-02T02:18:17.935Z,98631.15
2023-05-02T02:20:45.425Z,98633.58
2023-05-02T02:23:12.425Z,98632.16
2023-05-02T02:25:39.385Z,98634.77
2023-05-02T02:28:07.676Z,98633.27
2023-05-02T02:30:34.857Z,98635.22
2023-05-02T02:33:01.837Z,98635.88
2023-05-02T02:35:31.862Z,98632.23
2023-05-02T02:38:03.628Z,98632.54
2023-05-02T02:40:33.109Z,98635.70
2023-05-02T02:43:12.245Z,98637.40
2023-05-02T02:45:50.168Z,98633.23
2023-05-02T02:48:29.163Z,98631.04
2023-05-02T02:51:02.319Z,98631.95
2023-05-02T02:53:47.068Z,98634.31
2023-05-02T02:56:28.685Z,98631.20
2023-05-02T02:59:03.442Z,98628.27
2023-05-02T03:01:31.934Z,98630.72
2023-05-02T03:03:59.098Z,98631.42
2023-05-02T03:06:26.229Z,98629.15
2023-05-02T03:08:53.737Z,98635.16
2023-05-02T03:11:23.382Z,98631.81
2023-05-02T03:13:50.515Z,98632.27
2023-05-02T03:16:37.301Z,98634.48
2023-05-02T03:19:06.130Z,98639.06
2023-05-02T03:21:33.376Z,98642.85
2023-05-02T03:24:02.276Z,98644.35
2023-05-02T03:26:29.657Z,98646.96
2023-05-02T03:28:57.389Z,98644.00
2023-05-02T03:31:26.645Z,98645.23
2023-05-02T03:33:54.645Z,98643.66
2023-05-02T03:36:22.410Z,98648.30
2023-05-02T03:38:52.066Z,98646.54
2023-05-02T03:41:21.146Z,98648.69
2023-05-02T03:43:50.000Z,98644.34
2023-05-02T03:46:18.092Z,98645.67
2023-05-02T03:48:46.735Z,98652.94
2023-05-02T03:51:14.072Z,98655.11
2023-05-02T03:53:42.209Z,98659.89
2023-05-02T03:56:09.125Z,98661.33
2023-05-02T03:58:43.037Z,98662.23
2023-05-02T04:01:15.516Z,98663.04
2023-05-02T04:03:44.375Z,98666.58
2023-05-02T04:06:13.485Z,98666.66
2023-05-02T04:08:42.730Z,98665.71
2023-05-02T04:11:09.750Z,98662.52
2023-05-02T04:13:36.832Z,98662.73
2023-05-02T04:16:04.894Z,98664.35
2023-05-02T04:18:34.570Z,98668.08
2023-05-02T04:21:03.479Z,98668.20
2023-05-02T04:23:31.259Z,98668.41
2023-05-02T04:26:01.007Z,98674.49
2023-05-02T04:28:36.764Z,98671.32
2023-05-02T04:31:05.000Z,98673.22
2023-05-02T04:33:32.628Z,98664.72
2023-05-02T04:35:59.781Z,98660.85
2023-05-02T04:38:27.657Z,98655.54
2023-05-02T04:40:57.475Z,98661.42
2023-05-02T04:43:33.535Z,98664.30
2023-05-02T04:46:02.360Z,98663.48
2023-05-02T04:48:33.912Z,98667.81
2023-05-02T04:51:01.098Z,98665.38
2023-05-02T04:53:29.569Z,98668.12
2023-05-02T04:55:57.551Z,98669.23
2023-05-02T04:58:24.368Z,98666.84
2023-05-02T05:01:06.848Z,98662.70
2023-05-02T05:03:36.279Z,98661.09
2023-05-02T05:06:04.556Z,98663.77
2023-05-02T05:08:34.377Z,98664.05
2023-05-02T05:11:04.846Z,98667.60
2023-05-02T05:13:32.052Z,98665.48
2023-05-02T05:16:48.451Z,98662.30
2023-05-02T05:19:15.561Z,98660.34
2023-05-02T05:21:42.567Z,98661.35
2023-05-02T05:24:09.614Z,98659.45
2023-05-02T05:26:36.641Z,98660.82
2023-05-02T05:29:04.038Z,98663.91
2023-05-02T05:31:36.886Z,98662.44
2023-05-02T05:34:04.873Z,98660.89
2023-05-02T05:36:32.553Z,98662.60
2023-05-02T05:38:59.469Z,98662.60
2023-05-02T05:41:26.961Z,98661.48
2023-05-02T05:44:00.011Z,98661.80
2023-05-02T05:46:27.927Z,98661.92
2023-05-02T05:48:55.156Z,98662.34
2023-05-02T05:51:22.134Z,98665.77
2023-05-02T05:53:49.686Z,98666.07
2023-05-02T05:56:16.766Z,98665.02
2023-05-02T05:58:55.256Z,98669.18
2023-05-02T06:01:22.310Z,98670.30
2023-05-02T06:03:49.652Z,98670.52
2023-05-02T06:06:18.061Z,98670.03
2023-05-02T06:08:44.940Z,98667.84
2023-05-02T06:11:12.143Z,98671.16
2023-05-02T06:13:39.216Z,98670.52
2023-05-02T06:16:06.796Z,98671.48
2023-05-02T06:26:15.916Z,98654.39
2023-05-02T06:28:42.857Z,98655.16
2023-05-02T06:31:09.777Z,98655.33
2023-05-02T06:33:36.943Z,98654.69
2023-05-02T06:36:06.292Z,98653.30
2023-05-02T06:38:33.289Z,98650.44
2023-05-02T06:41:00.319Z,98647.95
2023-05-02T06:43:27.577Z,98648.56
2023-05-02T06:45:55.771Z,98647.33
2023-05-02T06:48:22.725Z,98650.06
2023-05-02T06:50:49.809Z,98652.04
2023-05-02T06:53:16.797Z,98652.24
2023-05-02T06:55:48.533Z,98655.70
2023-05-02T06:58:16.210Z,98654.90
2023-05-02T07:00:43.199Z,98654.97
2023-05-02T07:03:11.504Z,98657.73
2023-05-02T07:05:38.673Z,98653.33
2023-05-02T07:08:06.014Z,98654.77
2023-05-02T07:10:33.061Z,98657.28
2023-05-02T07:13:00.056Z,98657.24
2023-05-02T07:15:26.996Z,98662.92
2023-05-02T07:17:53.960Z,98663.30
2023-05-02T07:20:20.893Z,98665.10
2023-05-02T07:22:47.775Z,98666.59
2023-05-02T07:25:14.715Z,98664.45
2023-05-02T07:27:41.676Z,98664.18
2023-05-02T07:30:08.854Z,98663.50
2023-05-02T07:32:35.788Z,98661.20
2023-05-02T07:35:02.826Z,98660.37
2023-05-02T07:37:34.603Z,98662.53
2023-05-02T07:40:02.157Z,98663.86
2023-05-02T07:42:30.923Z,98662.59
2023-05-02T07:44:58.620Z,98657.84
2023-05-02T07:47:27.045Z,98650.57
2023-05-02T07:49:54.396Z,98648.60
2023-05-02T07:52:21.483Z,98650.09
2023-05-02T07:54:51.190Z,98650.34
2023-05-02T07:57:20.638Z,98653.86
2023-05-02T07:59:48.088Z,98654.41
2023-05-02T08:02:17.758Z,98652.89
2023-05-02T08:11:21.856Z,98654.89
2023-05-02T08:13:49.549Z,98653.01
2023-05-02T08:16:16.590Z,98651.36
2023-05-02T08:18:43.516Z,98652.56
2023-05-02T08:21:11.020Z,98654.23
2023-05-02T08:23:38.041Z,98654.20
2023-05-02T08:26:05.203Z,98653.15
2023-05-02T08:28:33.722Z,98648.58
2023-05-02T08:31:00.773Z,98651.04
2023-05-02T08:33:27.743Z,98649.17
2023-05-02T08:35:54.683Z,98647.19
2023-05-02T08:38:21.819Z,98646.46
2023-05-02T08:40:48.810Z,98650.33
2023-05-02T08:43:16.715Z,98647.24
2023-05-02T08:45:44.693Z,98645.93
2023-05-02T08:48:13.409Z,98642.75
2023-05-02T08:50:45.692Z,98646.55
2023-05-02T08:53:13.660Z,98644.34
2023-05-02T08:55:41.358Z,98641.84
2023-05-02T08:58:09.452Z,98641.56
2023-05-02T09:00:39.031Z,98638.88
2023-05-02T09:03:11.972Z,98637.71
2023-05-02T09:05:41.005Z,98639.67
2023-05-02T09:08:08.493Z,98638.23
2023-05-02T09:10:39.108Z,98635.20
2023-05-02T09:13:28.057Z,98628.83
2023-05-02T09:15:59.928Z,98629.33
2023-05-02T09:18:34.468Z,98625.16
2023-05-02T09:21:02.023Z,98621.89
2023-05-02T09:23:36.573Z,98622.98
2023-05-02T09:26:13.455Z,98618.14
2023-05-02T09:28:44.088Z,98616.95
2023-05-02T09:31:13.044Z,98616.08
2023-05-02T09:33:40.017Z,98615.14
2023-05-02T09:36:07.596Z,98614.85
2023-05-02T09:38:34.765Z,98611.00
2023-05-02T09:41:03.758Z,98612.59
2023-05-02T09:43:33.840Z,98611.33
2023-05-02T09:46:06.026Z,98611.33
2023-05-02T09:48:53.868Z,98613.15
2023-05-02T09:51:20.946Z,98607.46
2023-05-02T09:53:47.841Z,98608.59
2023-05-02T09:56:15.108Z,98610.33
2023-05-02T09:58:42.327Z,98608.88
2023-05-02T10:01:14.686Z,98605.92
2023-05-02T10:03:41.887Z,98607.25
2023-05-02T10:06:08.986Z,98607.20
2023-05-02T10:08:35.932Z,98604.11
2023-05-02T10:11:03.758Z,98596.49
2023-05-02T10:13:34.667Z,98597.06
2023-05-02T10:16:03.047Z,98594.48
2023-05-02T10:21:32.639Z,98593.24
2023-05-02T10:25:34.280Z,98594.21
2023-05-02T10:28:01.197Z,98594.55
2023-05-02T10:30:28.073Z,98594.71
2023-05-02T10:32:55.028Z,98593.15
2023-05-02T10:35:22.027Z,98586.66
2023-05-02T10:37:49.910Z,98580.64
2023-05-02T10:40:16.894Z,98576.52
2023-05-02T10:42:46.131Z,98572.37
2023-05-02T10:45:29.894Z,98572.73
2023-05-02T10:48:17.071Z,98569.01
2023-05-02T10:50:51.561Z,98565.64
2023-05-02T10:53:36.755Z,98559.77
2023-05-02T10:56:22.573Z,98562.56
2023-05-02T10:58:50.828Z,98562.27
2023-05-02T11:01:30.814Z,98557.70
2023-05-02T11:04:05.234Z,98557.37
2023-05-02T11:06:34.502Z,98552.65
2023-05-02T11:09:18.014Z,98552.68
2023-05-02T11:11:45.309Z,98555.50
2023-05-02T11:14:33.064Z,98557.27
2023-05-02T11:17:00.122Z,98547.75
2023-05-02T11:19:53.810Z,98545.46
2023-05-02T11:22:20.795Z,98546.63
2023-05-02T11:24:48.478Z,98541.55
2023-05-02T11:27:31.105Z,98538.95
2023-05-02T11:29:58.452Z,98537.95
2023-05-02T11:32:27.527Z,98536.84
2023-05-02T11:34:56.160Z,98535.67
2023-05-02T11:37:23.076Z,98535.04
2023-05-02T11:39:51.674Z,98534.80
2023-05-02T11:42:36.858Z,98535.93
2023-05-02T11:45:04.340Z,98534.42
2023-05-02T11:47:33.062Z,98529.50
2023-05-02T11:50:00.977Z,98528.89
2023-05-02T11:52:27.955Z,98529.52
2023-05-02T11:54:57.808Z,98526.41
2023-05-02T11:57:25.697Z,98523.80
2023-05-02T11:59:53.295Z,98519.69
2023-05-02T12:02:21.506Z,98516.06
2023-05-02T12:04:48.511Z,98515.39
2023-05-02T12:07:15.552Z,98511.68
2023-05-02T12:09:53.313Z,98507.83
2023-05-02T12:19:39.442Z,98505.27
2023-05-02T12:22:08.022Z,98503.77
2023-05-02T12:24:36.310Z,98494.63
2023-05-02T12:27:10.872Z,98492.70
2023-05-02T12:29:47.911Z,98486.70
2023-05-02T12:32:15.352Z,98490.33
2023-05-02T12:34:42.388Z,98483.16
2023-05-02T12:37:09.458Z,98483.31
2023-05-02T12:39:37.634Z,98484.17
2023-05-02T12:42:12.055Z,98480.92
2023-05-02T12:44:40.002Z,98478.39
2023-05-02T12:47:08.267Z,98472.17
2023-05-02T12:49:58.214Z,98469.89
2023-05-02T12:52:47.259Z,98469.16
2023-05-02T12:55:21.803Z,98468.83
2023-05-02T12:57:48.830Z,98462.70
2023-05-02T13:00:18.980Z,98463.77
2023-05-02T13:02:46.085Z,98460.68
2023-05-02T13:05:17.002Z,98459.19
2023-05-02T13:07:43.852Z,98456.46
2023-05-02T13:10:12.279Z,98457.09
2023-05-02T13:12:39.801Z,98451.06
2023-05-02T13:15:07.967Z,98447.34
2023-05-02T13:17:35.478Z,98444.96
2023-05-02T13:20:03.748Z,98447.80
2023-05-02T13:22:31.151Z,98445.13
2023-05-02T13:24:58.185Z,98442.05
2023-05-02T13:27:25.376Z,98439.65
2023-05-02T13:29:52.293Z,98440.38
2023-05-02T13:32:19.933Z,98439.77
2023-05-02T13:34:46.872Z,98436.02
2023-05-02T13:37:14.028Z,98438.08
2023-05-02T13:39:40.882Z,98433.30
2023-05-02T13:42:08.178Z,98428.95
2023-05-02T13:44:35.071Z,98429.30
2023-05-02T13:47:02.253Z,98428.40
2023-05-02T13:49:30.128Z,98431.20
2023-05-02T13:51:59.708Z,98426.48
2023-05-02T13:54:27.175Z,98430.58
2023-05-02T13:56:54.300Z,98425.71
2023-05-02T13:59:21.256Z,98425.11
2023-05-02T14:01:48.209Z,98424.48
2023-05-02T14:04:18.033Z,98423.48
2023-05-02T14:06:45.223Z,98412.50
2023-05-02T14:09:12.265Z,98411.02
2023-05-02T14:11:39.168Z,98411.23
2023-05-02T14:14:06.074Z,98409.08
2023-05-02T14:16:35.371Z,98408.55
2023-05-02T14:19:02.282Z,98403.70
2023-05-02T14:21:32.060Z,98404.95
2023-05-02T14:24:00.513Z,98406.62
2023-05-02T14:26:27.456Z,98407.33
2023-05-02T14:28:57.396Z,98407.38
2023-05-02T14:31:25.430Z,98410.06
2023-05-02T14:33:52.459Z,98408.80
2023-05-02T14:36:19.667Z,98407.19
2023-05-02T14:38:46.624Z,98405.48
2023-05-02T14:41:13.446Z,98405.05
2023-05-02T14:43:40.374Z,98400.06
2023-05-02T14:46:07.343Z,98399.92
2023-05-02T14:48:34.243Z,98403.23
2023-05-02T14:51:04.276Z,98403.20
2023-05-02T14:53:31.652Z,98403.44
2023-05-02T14:55:58.654Z,98402.14
2023-05-02T14:58:25.739Z,98405.55
2023-05-02T15:00:52.667Z,98404.87
2023-05-02T15:03:19.903Z,98404.92
2023-05-02T15:05:46.984Z,98405.91
2023-05-02T15:08:14.118Z,98406.83
2023-05-02T15:10:41.050Z,98407.91
2023-05-02T15:13:09.039Z,98408.16
2023-05-02T15:15:37.329Z,98408.84
2023-05-02T15:18:04.628Z,98407.77
2023-05-02T15:20:31.712Z,98409.83
2023-05-02T15:23:03.471Z,98408.09
2023-05-02T15:25:31.299Z,98409.05
2023-05-02T15:27:58.219Z,98413.56
2023-05-02T15:30:25.646Z,98413.46
2023-05-02T15:32:52.689Z,98416.23
2023-05-02T15:35:19.632Z,98421.56
2023-05-02T15:37:46.507Z,98420.14
2023-05-02T15:40:14.601Z,98420.73
2023-05-02T15:42:42.027Z,98418.77
2023-05-02T15:45:11.484Z,98418.23
2023-05-02T15:47:38.467Z,98416.67
2023-05-02T15:50:10.798Z,98417.33
2023-05-02T15:52:37.671Z,98415.39
2023-05-02T15:55:05.398Z,98414.34
2023-05-02T15:57:32.221Z,98412.96
2023-05-02T15:59:59.452Z,98411.67
2023-05-02T16:02:26.921Z,98409.80
2023-05-02T16:04:53.729Z,98408.92
2023-05-02T16:07:20.698Z,98408.60
2023-05-02T16:09:47.613Z,98407.60
2023-05-02T16:12:14.888Z,98403.76
2023-05-02T16:14:41.821Z,98406.88
2023-05-02T16:17:08.809Z,98402.61
2023-05-02T16:19:35.712Z,98401.81
2023-05-02T16:22:02.992Z,98406.05
2023-05-02T16:24:29.984Z,98406.77
2023-05-02T16:26:56.840Z,98409.54
2023-05-02T16:29:23.816Z,98409.00
2023-05-02T16:31:50.845Z,98410.92
2023-05-02T16:34:17.908Z,98409.07
2023-05-02T16:36:45.180Z,98411.98
2023-05-02T16:39:12.211Z,98414.33
2023-05-02T16:41:39.134Z,98415.05
2023-05-02T16:44:06.504Z,98416.02
2023-05-02T16:46:33.581Z,98414.69
2023-05-02T16:49:01.003Z,98415.83
2023-05-02T16:51:28.139Z,98412.98
2023-05-02T16:53:55.044Z,98408.53
2023-05-02T16:56:21.906Z,98408.30
2023-05-02T16:58:48.925Z,98409.11
2023-05-02T17:01:15.930Z,98405.39
2023-05-02T17:03:42.889Z,98407.73
2023-05-02T17:06:10.008Z,98405.16
2023-05-02T17:08:36.968Z,98404.31
2023-05-02T17:11:04.042Z,98402.83
2023-05-02T17:13:31.725Z,98405.16
2023-05-02T17:15:59.248Z,98404.83
2023-05-02T17:18:26.859Z,98403.11
2023-05-02T17:20:54.900Z,98405.22
2023-05-02T17:23:22.353Z,98403.20
2023-05-02T17:25:49.377Z,98402.13
2023-05-02T17:28:16.860Z,98400.84
2023-05-02T17:30:43.996Z,98404.98
2023-05-02T17:34:16.913Z,98404.99
2023-05-02T17:36:44.852Z,98408.36
2023-05-02T17:39:13.357Z,98405.20
2023-05-02T17:41:40.423Z,98409.06
2023-05-02T17:44:09.674Z,98408.44
2023-05-02T17:46:36.640Z,98410.63
2023-05-02T17:49:03.734Z,98412.70
2023-05-02T17:51:30.600Z,98415.14
2023-05-02T17:53:57.579Z,98415.41
2023-05-02T17:56:24.601Z,98417.13
2023-05-02T17:58:52.047Z,98419.54
2023-05-02T18:01:19.224Z,98424.25
2023-05-02T18:03:47.520Z,98427.77
2023-05-02T18:06:18.214Z,98431.54
2023-05-02T18:08:45.401Z,98436.58
2023-05-02T18:11:18.851Z,98435.13
2023-05-02T18:13:45.967Z,98437.76
2023-05-02T18:16:13.994Z,98435.96
2023-05-02T18:18:41.429Z,98437.01
2023-05-02T18:21:09.740Z,98435.11
2023-05-02T18:23:36.715Z,98435.90
2023-05-02T18:26:04.026Z,98436.13
2023-05-02T18:28:30.935Z,98438.55
2023-05-02T18:30:57.862Z,98441.38
2023-05-02T18:33:24.767Z,98442.11
2023-05-02T18:35:51.658Z,98443.24
2023-05-02T18:38:19.756Z,98449.32
2023-05-02T18:40:46.637Z,98451.83
2023-05-02T18:43:15.907Z,98455.15
2023-05-02T18:45:44.408Z,98456.25
2023-05-02T18:48:11.381Z,98460.11
2023-05-02T18:50:38.297Z,98457.39
2023-05-02T18:53:05.131Z,98459.95
2023-05-02T18:55:32.852Z,98461.20
2023-05-02T18:57:59.810Z,98456.98
2023-05-02T19:00:30.249Z,98464.63
2023-05-02T19:02:57.488Z,98462.55
2023-05-02T19:05:24.626Z,98462.16
2023-05-02T19:07:51.433Z,98460.63
2023-05-02T19:10:18.294Z,98460.29
2023-05-02T19:12:46.372Z,98461.48
2023-05-02T19:15:13.462Z,98463.04
2023-05-02T19:17:40.421Z,98465.59
2023-05-02T19:20:08.164Z,98464.16
2023-05-02T19:22:37.156Z,98465.89
2023-05-02T19:25:04.494Z,98459.65
2023-05-02T19:27:31.618Z,98462.48
2023-05-02T19:29:58.774Z,98460.34
2023-05-02T19:32:25.807Z,98463.85
2023-05-02T19:34:52.842Z,98465.80
2023-05-02T19:37:19.740Z,98472.27
2023-05-02T19:39:46.600Z,98478.50
2023-05-02T19:42:13.605Z,98481.59
2023-05-02T19:44:40.475Z,98484.92
2023-05-02T19:47:07.608Z,98485.60
2023-05-02T19:49:34.646Z,98482.23
2023-05-02T19:52:01.500Z,98481.72
2023-05-02T19:54:28.304Z,98482.18
2023-05-02T19:56:55.322Z,98479.59
2023-05-02T19:59:22.166Z,98481.98
2023-05-02T20:01:49.321Z,98484.64
2023-05-02T20:04:16.255Z,98488.55
2023-05-02T20:06:43.175Z,98491.88
2023-05-02T20:09:11.228Z,98494.27
2023-05-02T20:11:38.149Z,98493.52
2023-05-02T20:14:04.958Z,98492.69
2023-05-02T20:16:32.344Z,98491.97
2023-05-02T20:18:59.225Z,98486.56
2023-05-02T20:21:26.832Z,98490.26
2023-05-02T20:23:53.764Z,98491.93
2023-05-02T20:26:23.504Z,98493.67
2023-05-02T20:28:50.396Z,98493.34
2023-05-02T20:37:23.652Z,98492.95
2023-05-02T20:47:32.418Z,98500.99
2023-05-02T20:49:59.545Z,98505.10
2023-05-02T20:52:26.654Z,98505.94
2023-05-02T20:54:53.870Z,98507.08
2023-05-02T20:57:20.843Z,98506.61
2023-05-02T20:59:47.788Z,98504.17
2023-05-02T21:02:14.721Z,98502.90
2023-05-02T21:04:42.387Z,98504.90
2023-05-02T21:07:09.329Z,98510.59
2023-05-02T21:09:36.215Z,98505.02
2023-05-02T21:12:03.293Z,98501.59
2023-05-02T21:14:30.155Z,98501.42
2023-05-02T21:16:57.051Z,98512.64
2023-05-02T21:19:23.965Z,98519.11
2023-05-02T21:21:50.940Z,98518.17
2023-05-02T21:24:17.990Z,98526.20
2023-05-02T21:26:45.561Z,98527.27
2023-05-02T21:29:13.965Z,98527.98
2023-05-02T21:31:40.914Z,98534.03
2023-05-02T21:34:10.234Z,98533.05
